Time;durP1;ratioP1;P1;durP2;ratioP2;P2;SDS_P1;SDS_P2;PMS_P1;PMS_P2;Temp;Humidity;BMP_temperature;BMP_pressure;BME280_temperature;BME280_humidity;BME280_pressure;Samples;Min_cycle;Max_cycle;Signal;HPM_P1;HPM_P2
2022/04/25 00:01:26;;;;;;;4.35;2.83;;;14.50;86.40;;;;;;6343179;22;20037;-80
2022/04/25 00:03:52;;;;;;;3.55;2.47;;;14.50;86.40;;;;;;6370034;22;20002;-78
2022/04/25 00:06:18;;;;;;;4.10;3.03;;;14.40;86.40;;;;;;6369639;22;19998;-78
2022/04/25 00:08:43;;;;;;;4.22;2.63;;;14.40;86.30;;;;;;6369655;22;20006;-79
2022/04/25 00:11:09;;;;;;;6.57;3.47;;;14.50;86.40;;;;;;6370183;22;20293;-79
2022/04/25 00:13:35;;;;;;;4.55;3.40;;;14.40;86.40;;;;;;6369732;22;19994;-80
2022/04/25 00:16:01;;;;;;;4.85;3.35;;;14.40;86.40;;;;;;6368633;22;20016;-78
2022/04/25 00:18:27;;;;;;;4.05;3.42;;;14.40;86.50;;;;;;6370477;22;20022;-81
2022/04/25 00:20:52;;;;;;;3.67;3.30;;;14.40;86.50;;;;;;6370251;22;19998;-81
2022/04/25 00:23:18;;;;;;;4.38;3.28;;;14.40;86.50;;;;;;6370310;22;19999;-82
2022/04/25 00:25:44;;;;;;;3.60;2.67;;;14.30;86.50;;;;;;6369173;22;20055;-82
2022/04/25 00:28:09;;;;;;;4.72;3.28;;;14.30;86.60;;;;;;6368922;22;19998;-82
2022/04/25 00:30:35;;;;;;;4.18;3.40;;;14.30;86.60;;;;;;6370208;22;19994;-82
2022/04/25 00:33:01;;;;;;;5.43;3.45;;;14.30;86.70;;;;;;6369876;22;20051;-82
2022/04/25 00:35:28;;;;;;;4.05;3.22;;;14.20;86.70;;;;;;6369556;22;20030;-82
2022/04/25 00:37:53;;;;;;;6.13;3.42;;;14.30;86.70;;;;;;6369084;22;19994;-81
2022/04/25 00:40:21;;;;;;;5.72;3.47;;;14.30;86.70;;;;;;6369703;22;20119;-81
2022/04/25 00:42:48;;;;;;;7.20;3.83;;;14.30;86.60;;;;;;6370272;22;19999;-78
2022/04/25 00:45:15;;;;;;;4.38;3.58;;;14.30;86.60;;;;;;6342678;22;20013;-78
2022/04/25 00:47:41;;;;;;;7.53;3.85;;;14.20;86.50;;;;;;6370153;22;20051;-78
2022/04/25 00:50:09;;;;;;;5.13;3.55;;;14.20;86.60;;;;;;6369435;22;20045;-78
2022/04/25 00:52:35;;;;;;;6.65;3.75;;;14.20;86.80;;;;;;6369988;22;20285;-78
2022/04/25 00:55:03;;;;;;;5.25;3.60;;;14.30;86.80;;;;;;6369369;22;19995;-78
2022/04/25 00:57:29;;;;;;;6.43;3.75;;;14.30;86.70;;;;;;6342383;22;20289;-78
2022/04/25 00:59:57;;;;;;;4.57;3.38;;;14.30;86.80;;;;;;6341832;22;20308;-78
2022/04/25 01:02:27;;;;;;;4.60;3.42;;;14.30;86.90;;;;;;6369962;22;19998;-78
2022/04/25 01:04:55;;;;;;;3.42;3.08;;;14.30;86.90;;;;;;6370077;22;19998;-78
2022/04/25 01:07:22;;;;;;;4.60;3.00;;;14.30;87.00;;;;;;6370188;22;20002;-78
2022/04/25 01:09:47;;;;;;;5.68;3.33;;;14.20;87.00;;;;;;6369237;22;20022;-78
2022/04/25 01:12:13;;;;;;;3.35;3.00;;;14.20;87.00;;;;;;6370066;22;20085;-78
2022/04/25 01:14:39;;;;;;;4.05;3.08;;;14.20;87.60;;;;;;6368780;22;20014;-78
2022/04/25 01:17:05;;;;;;;3.75;3.10;;;14.20;87.10;;;;;;6370073;22;20278;-78
2022/04/25 01:19:31;;;;;;;4.30;3.25;;;14.20;87.20;;;;;;6369774;22;20079;-76
2022/04/25 01:22:04;;;;;;;2.97;2.67;;;14.20;87.20;;;;;;6369873;22;19999;-76
2022/04/25 01:27:16;;;;;;;3.72;3.00;;;14.20;87.10;;;;;;6305811;22;20026;-77
2022/04/25 01:29:49;;;;;;;6.53;3.53;;;14.20;87.10;;;;;;6369440;22;20316;-78
2022/04/25 01:32:16;;;;;;;6.40;3.30;;;14.20;87.20;;;;;;6369011;22;19998;-77
2022/04/25 01:34:42;;;;;;;3.35;2.97;;;14.20;87.10;;;;;;6368952;22;20018;-77
2022/04/25 01:37:10;;;;;;;6.05;3.40;;;14.10;87.10;;;;;;6369697;22;19999;-77
2022/04/25 01:39:40;;;;;;;4.03;3.15;;;14.20;87.10;;;;;;6369310;22;19999;-76
2022/04/25 01:42:07;;;;;;;4.80;3.22;;;14.20;87.20;;;;;;6369466;22;20006;-77
2022/04/25 01:44:34;;;;;;;4.25;3.20;;;14.20;87.20;;;;;;6369552;22;20116;-77
2022/04/25 01:46:59;;;;;;;6.13;4.03;;;14.10;87.20;;;;;;6368526;22;20328;-77
2022/04/25 01:49:25;;;;;;;4.53;3.00;;;14.10;87.20;;;;;;6369465;22;20006;-78
2022/04/25 01:51:51;;;;;;;3.50;3.20;;;14.10;87.20;;;;;;6368858;22;20069;-76
2022/04/25 01:54:25;;;;;;;4.50;3.97;;;14.10;87.20;;;;;;6369583;22;20489;-76
2022/04/25 01:56:54;;;;;;;4.25;3.28;;;14.10;87.20;;;;;;6342320;22;20668;-76
2022/04/25 01:59:21;;;;;;;4.85;3.35;;;14.10;87.20;;;;;;6370119;22;20030;-77
2022/04/25 02:01:47;;;;;;;3.95;3.13;;;14.10;87.30;;;;;;6369411;22;20025;-78
2022/04/25 02:04:13;;;;;;;5.53;3.90;;;14.00;87.30;;;;;;6370152;22;20425;-77
2022/04/25 02:06:39;;;;;;;6.00;3.53;;;14.10;87.30;;;;;;6369634;22;20003;-78
2022/04/25 02:09:05;;;;;;;5.55;3.65;;;14.00;87.30;;;;;;6368853;22;20420;-77
2022/04/25 02:11:31;;;;;;;4.47;3.75;;;14.00;87.30;;;;;;6370121;22;19998;-77
2022/04/25 02:13:57;;;;;;;4.93;3.63;;;14.10;87.50;;;;;;6342944;22;20416;-77
2022/04/25 02:16:24;;;;;;;5.40;3.92;;;14.00;87.40;;;;;;6371643;22;20029;-79
2022/04/25 02:18:50;;;;;;;4.18;3.40;;;14.10;87.50;;;;;;6371359;22;20002;-78
2022/04/25 02:21:17;;;;;;;6.25;3.92;;;14.00;87.40;;;;;;6371139;22;20002;-78
2022/04/25 02:23:42;;;;;;;5.70;3.45;;;14.00;87.90;;;;;;6343834;22;20006;-78
2022/04/25 02:26:08;;;;;;;4.72;4.22;;;14.00;87.60;;;;;;6371420;22;20008;-78
2022/04/25 02:28:35;;;;;;;4.32;3.45;;;14.00;87.70;;;;;;6371313;22;20006;-78
2022/04/25 02:31:04;;;;;;;7.38;4.40;;;14.00;87.90;;;;;;6371053;22;19999;-78
2022/04/25 02:33:31;;;;;;;4.20;3.72;;;14.00;87.70;;;;;;6342834;22;20025;-78
2022/04/25 02:35:57;;;;;;;5.72;4.63;;;14.00;87.60;;;;;;6370980;22;20420;-78
2022/04/25 02:38:22;;;;;;;4.50;3.85;;;14.00;87.70;;;;;;6370935;22;20074;-77
2022/04/25 02:41:08;;;;;;;5.85;4.32;;;14.00;87.80;;;;;;6370971;22;20313;-77
2022/04/25 02:43:38;;;;;;;4.63;3.78;;;14.00;87.90;;;;;;6371677;22;20002;-78
2022/04/25 02:46:06;;;;;;;3.85;3.45;;;14.00;87.90;;;;;;6370351;22;20003;-78
2022/04/25 02:48:32;;;;;;;5.25;4.13;;;14.00;87.90;;;;;;6371104;22;20041;-78
2022/04/25 02:50:59;;;;;;;4.57;3.90;;;14.00;88.10;;;;;;6370827;22;20077;-78
2022/04/25 02:53:25;;;;;;;5.28;4.18;;;14.00;88.10;;;;;;6341717;22;20008;-78
2022/04/25 02:55:52;;;;;;;6.05;4.40;;;14.00;88.10;;;;;;6369963;22;20059;-78
2022/04/25 02:58:22;;;;;;;5.70;4.22;;;13.90;88.10;;;;;;6370699;22;20006;-79
2022/04/25 03:00:49;;;;;;;6.20;4.10;;;14.00;88.30;;;;;;6370552;22;20078;-78
2022/04/25 03:03:16;;;;;;;5.88;4.28;;;13.90;88.20;;;;;;6369856;22;20450;-77
2022/04/25 03:05:43;;;;;;;7.13;5.03;;;14.00;88.20;;;;;;6370231;22;20047;-78
2022/04/25 03:08:19;;;;;;;4.93;4.13;;;13.90;88.30;;;;;;6370848;22;19998;-77
2022/04/25 03:10:46;;;;;;;5.30;4.50;;;13.90;88.60;;;;;;6370490;22;19995;-77
2022/04/25 03:13:14;;;;;;;4.38;3.92;;;13.80;88.80;;;;;;6371408;22;20324;-77
2022/04/25 03:15:40;;;;;;;6.07;4.07;;;13.80;88.90;;;;;;6369506;22;20013;-77
2022/04/25 03:18:07;;;;;;;4.63;3.80;;;13.80;89.00;;;;;;6371033;22;19994;-77
2022/04/25 03:20:33;;;;;;;6.40;4.25;;;13.80;89.60;;;;;;6370886;22;20005;-77
2022/04/25 03:22:59;;;;;;;5.50;4.43;;;13.80;89.50;;;;;;6371018;22;19994;-78
2022/04/25 03:25:25;;;;;;;6.65;5.68;;;13.80;89.40;;;;;;6370559;22;20277;-78
2022/04/25 03:27:52;;;;;;;5.28;4.65;;;13.70;90.10;;;;;;6370218;22;20001;-78
2022/04/25 03:30:18;;;;;;;7.53;4.75;;;13.70;90.30;;;;;;6342537;22;20387;-77
2022/04/25 03:32:45;;;;;;;5.93;4.15;;;13.70;90.10;;;;;;6370944;22;20119;-77
2022/04/25 03:35:12;;;;;;;5.72;4.13;;;13.70;90.10;;;;;;6370332;22;20005;-78
2022/04/25 03:37:38;;;;;;;5.53;5.03;;;13.70;90.00;;;;;;6370574;22;20002;-77
2022/04/25 03:40:05;;;;;;;4.80;4.22;;;13.70;89.90;;;;;;6369341;22;20422;-77
2022/04/25 03:42:31;;;;;;;7.68;5.78;;;13.70;89.80;;;;;;6343045;22;20014;-77
2022/04/25 03:44:57;;;;;;;6.38;4.30;;;13.70;89.90;;;;;;6370370;22;20010;-77
2022/04/25 03:47:23;;;;;;;5.05;4.20;;;13.60;89.90;;;;;;6370958;22;20503;-77
2022/04/25 03:49:49;;;;;;;5.40;4.18;;;13.60;89.80;;;;;;6370758;22;20304;-77
2022/04/25 03:52:15;;;;;;;6.38;4.60;;;13.60;89.70;;;;;;6369228;22;20125;-77
2022/04/25 03:57:25;;;;;;;6.00;5.05;;;13.40;90.10;;;;;;6370264;22;20010;-78
2022/04/25 03:59:50;;;;;;;12.60;9.73;;;13.40;90.10;;;;;;6370338;22;19998;-78
2022/04/25 04:02:16;;;;;;;10.80;8.50;;;13.50;90.40;;;;;;6370675;22;19998;-78
2022/04/25 04:04:42;;;;;;;9.35;7.18;;;13.40;90.80;;;;;;6369921;22;20008;-77
2022/04/25 04:07:08;;;;;;;6.80;5.97;;;13.40;90.70;;;;;;6370671;22;20470;-77
2022/04/25 04:09:46;;;;;;;8.85;6.70;;;13.30;90.80;;;;;;6370312;22;20002;-77
2022/04/25 04:12:23;;;;;;;6.93;5.57;;;13.30;90.40;;;;;;6370689;22;19995;-76
2022/04/25 04:14:48;;;;;;;4.88;4.38;;;13.20;90.40;;;;;;6370105;22;20007;-76
2022/04/25 04:17:17;;;;;;;4.93;4.43;;;13.30;90.20;;;;;;6369366;22;19998;-76
2022/04/25 04:19:43;;;;;;;4.25;3.85;;;13.40;89.80;;;;;;6342145;22;20404;-76
2022/04/25 04:22:09;;;;;;;4.85;3.70;;;13.30;89.30;;;;;;6370411;22;20073;-77
2022/04/25 04:24:35;;;;;;;4.05;3.65;;;13.20;89.30;;;;;;6369994;22;20026;-77
2022/04/25 04:27:05;;;;;;;4.80;3.78;;;13.20;89.20;;;;;;6342244;22;20006;-77
2022/04/25 04:29:32;;;;;;;3.58;3.22;;;13.30;88.80;;;;;;6370093;22;20006;-77
2022/04/25 04:32:05;;;;;;;3.08;2.88;;;13.30;88.30;;;;;;6370165;22;20014;-77
2022/04/25 04:34:32;;;;;;;3.05;2.80;;;13.30;88.10;;;;;;6369675;22;20019;-77
2022/04/25 04:36:59;;;;;;;3.83;3.22;;;13.10;87.70;;;;;;6369982;22;19998;-77
2022/04/25 04:39:24;;;;;;;3.50;3.20;;;13.20;88.10;;;;;;6341086;22;20439;-78
2022/04/25 04:41:50;;;;;;;2.67;2.40;;;13.20;87.90;;;;;;6369599;22;20029;-79
2022/04/25 04:44:17;;;;;;;4.82;3.90;;;13.20;87.60;;;;;;6369171;22;20006;-78
2022/04/25 04:46:43;;;;;;;2.85;2.50;;;13.10;86.50;;;;;;6369952;22;20002;-77
2022/04/25 04:49:09;;;;;;;2.80;2.50;;;12.90;87.20;;;;;;6369850;22;20006;-77
2022/04/25 04:51:35;;;;;;;2.78;2.47;;;13.00;87.30;;;;;;6369293;22;20078;-77
2022/04/25 04:54:02;;;;;;;2.47;2.20;;;12.80;87.20;;;;;;6369804;22;19999;-77
2022/04/25 04:56:31;;;;;;;2.88;2.38;;;12.80;87.60;;;;;;6341903;22;20001;-77
2022/04/25 04:58:58;;;;;;;3.00;2.50;;;13.00;87.30;;;;;;6341457;22;20006;-81
2022/04/25 05:01:24;;;;;;;3.65;2.90;;;13.10;86.90;;;;;;6368487;22;20009;-81
2022/04/25 05:03:50;;;;;;;3.17;2.28;;;13.10;86.40;;;;;;6368276;22;20069;-80
2022/04/25 05:06:16;;;;;;;2.03;1.83;;;13.00;86.70;;;;;;6341786;22;20026;-81
2022/04/25 05:08:42;;;;;;;3.03;2.50;;;13.00;86.80;;;;;;6368944;22;20010;-81
2022/04/25 05:11:09;;;;;;;3.80;3.13;;;13.00;86.70;;;;;;6341991;22;20095;-82
2022/04/25 05:13:36;;;;;;;3.83;2.60;;;12.70;87.40;;;;;;6369551;22;19998;-82
2022/04/25 05:16:06;;;;;;;2.85;2.30;;;12.70;87.80;;;;;;6369334;22;20006;-82
2022/04/25 05:18:33;;;;;;;2.73;2.20;;;12.80;87.40;;;;;;6341865;22;20485;-82
2022/04/25 05:21:02;;;;;;;2.67;2.47;;;12.80;87.30;;;;;;6369801;22;20008;-81
2022/04/25 05:23:28;;;;;;;2.80;2.60;;;12.80;87.30;;;;;;6369270;22;19999;-82
2022/04/25 05:25:54;;;;;;;3.58;2.80;;;12.80;87.40;;;;;;6369984;22;20051;-81
2022/04/25 05:28:25;;;;;;;4.18;3.78;;;12.70;88.20;;;;;;6368957;22;20010;-81
2022/04/25 05:30:51;;;;;;;3.78;2.92;;;12.70;88.40;;;;;;6369395;22;20069;-80
2022/04/25 05:33:18;;;;;;;3.25;2.50;;;12.60;88.80;;;;;;6369518;22;20047;-81
2022/04/25 05:35:44;;;;;;;4.80;3.97;;;12.60;88.70;;;;;;6369877;22;19998;-79
2022/04/25 05:38:11;;;;;;;3.10;2.80;;;12.60;88.10;;;;;;6368716;22;20416;-80
2022/04/25 05:40:37;;;;;;;3.35;3.05;;;12.60;88.60;;;;;;6369550;22;20006;-79
2022/04/25 05:43:04;;;;;;;4.18;3.78;;;12.60;88.80;;;;;;6369817;22;20425;-83
2022/04/25 05:45:31;;;;;;;4.45;4.05;;;12.50;89.10;;;;;;6370604;22;19994;-80
2022/04/25 05:47:57;;;;;;;4.38;3.97;;;12.50;90.00;;;;;;6370938;22;20140;-79
2022/04/25 05:53:09;;;;;;;3.75;3.45;;;12.70;89.90;;;;;;6371451;22;20037;-77
2022/04/25 05:55:36;;;;;;;4.30;3.90;;;12.70;89.90;;;;;;6371767;22;20001;-76
2022/04/25 05:58:02;;;;;;;4.07;3.67;;;12.80;89.60;;;;;;6371007;22;20002;-76
2022/04/25 06:00:29;;;;;;;3.78;3.40;;;12.80;89.70;;;;;;6370859;22;20013;-76
2022/04/25 06:02:55;;;;;;;4.75;4.32;;;12.80;90.00;;;;;;6369566;22;20085;-75
2022/04/25 06:05:21;;;;;;;6.07;5.40;;;12.80;90.10;;;;;;6342922;22;20353;-78
2022/04/25 06:07:47;;;;;;;8.75;7.85;;;12.80;90.20;;;;;;6370412;22;20006;-76
2022/04/25 06:10:16;;;;;;;8.05;7.32;;;12.80;90.30;;;;;;6369725;22;20006;-77
2022/04/25 06:12:44;;;;;;;8.50;7.32;;;12.70;90.80;;;;;;6370929;22;20022;-76
2022/04/25 06:15:11;;;;;;;7.15;5.38;;;12.70;91.00;;;;;;6370610;22;20079;-76
2022/04/25 06:17:37;;;;;;;9.13;6.82;;;12.80;90.90;;;;;;6371224;22;20514;-76
2022/04/25 06:20:07;;;;;;;12.55;9.85;;;13.00;90.60;;;;;;6369939;22;20405;-76
2022/04/25 06:22:33;;;;;;;10.98;7.90;;;13.10;90.70;;;;;;6370735;22;20002;-78
2022/04/25 06:24:59;;;;;;;14.35;10.98;;;13.20;90.80;;;;;;6370461;22;20009;-78
2022/04/25 06:27:25;;;;;;;12.18;10.05;;;13.20;91.00;;;;;;6370987;22;20029;-77
2022/04/25 06:29:52;;;;;;;14.75;10.75;;;13.30;90.90;;;;;;6369833;22;20358;-77
2022/04/25 06:32:19;;;;;;;10.05;8.70;;;13.30;91.20;;;;;;6370635;22;20005;-77
2022/04/25 06:34:46;;;;;;;11.80;9.75;;;13.10;91.60;;;;;;6341703;22;20428;-79
2022/04/25 06:37:11;;;;;;;10.82;8.63;;;13.20;91.60;;;;;;6370403;22;20047;-78
2022/04/25 06:39:37;;;;;;;23.17;16.42;;;13.30;91.60;;;;;;6371161;22;20034;-76
2022/04/25 06:42:05;;;;;;;14.93;12.93;;;13.20;91.50;;;;;;6370402;22;20003;-77
2022/04/25 06:44:31;;;;;;;9.80;8.77;;;13.00;92.50;;;;;;6370787;22;20069;-81
2022/04/25 06:46:57;;;;;;;20.05;13.80;;;13.10;92.50;;;;;;6370091;22;20051;-82
2022/04/25 06:49:25;;;;;;;25.65;19.63;;;13.20;92.20;;;;;;6368937;22;20002;-78
2022/04/25 06:51:59;;;;;;;14.10;12.15;;;13.10;92.20;;;;;;6341580;22;20006;-77
2022/04/25 06:54:26;;;;;;;15.13;12.68;;;13.30;92.50;;;;;;6368628;22;20022;-80
2022/04/25 06:56:53;;;;;;;12.35;10.40;;;13.40;92.10;;;;;;6370227;22;19995;-81
2022/04/25 06:59:20;;;;;;;11.40;8.60;;;13.50;92.10;;;;;;6370533;22;20006;-80
2022/04/25 07:01:47;;;;;;;8.85;7.53;;;13.70;91.80;;;;;;6370830;22;20006;-78
2022/04/25 07:04:13;;;;;;;10.48;9.05;;;13.80;91.60;;;;;;6360193;22;20081;-78
2022/04/25 07:06:39;;;;;;;21.17;16.65;;;14.00;91.40;;;;;;6368932;22;20075;-78
2022/04/25 07:09:06;;;;;;;18.33;16.23;;;13.60;91.60;;;;;;6365798;22;20414;-78
2022/04/25 07:11:33;;;;;;;10.13;8.60;;;13.20;92.60;;;;;;6369966;22;20032;-77
2022/04/25 07:14:02;;;;;;;14.93;12.10;;;13.10;93.10;;;;;;6369435;22;20064;-78
2022/04/25 07:16:28;;;;;;;9.18;8.05;;;13.20;92.90;;;;;;6369651;22;20010;-79
2022/04/25 07:18:55;;;;;;;5.93;5.25;;;13.20;93.20;;;;;;6369486;22;20331;-79
2022/04/25 07:29:33;;;;;;;10.65;8.60;;;13.60;92.70;;;;;;6369997;22;20018;-79
2022/04/25 07:31:59;;;;;;;6.10;5.50;;;13.70;92.20;;;;;;6369300;22;19994;-79
2022/04/25 07:34:25;;;;;;;7.22;5.90;;;13.90;92.10;;;;;;6368993;22;20002;-79
2022/04/25 07:36:54;;;;;;;7.45;6.75;;;14.00;91.60;;;;;;6369937;22;20073;-78
2022/04/25 07:39:20;;;;;;;7.20;6.50;;;14.10;91.50;;;;;;6369794;22;20020;-79
2022/04/25 07:41:47;;;;;;;6.20;5.60;;;14.30;91.20;;;;;;6369522;22;20005;-79
2022/04/25 07:44:13;;;;;;;8.10;5.78;;;14.40;91.00;;;;;;6368952;22;20002;-80
2022/04/25 07:46:46;;;;;;;6.80;6.10;;;14.40;90.70;;;;;;6370208;22;20026;-78
2022/04/25 07:49:14;;;;;;;6.25;5.65;;;14.40;90.70;;;;;;6369913;22;21008;-78
2022/04/25 07:51:40;;;;;;;6.70;4.68;;;14.70;90.70;;;;;;6370438;22;20428;-80
2022/04/25 07:54:11;;;;;;;5.07;4.22;;;14.80;90.50;;;;;;6369918;22;19998;-79
2022/04/25 07:56:38;;;;;;;6.40;5.28;;;15.10;90.30;;;;;;6368758;22;20120;-78
2022/04/25 07:59:05;;;;;;;5.50;4.80;;;15.20;89.00;;;;;;6341719;22;20009;-79
2022/04/25 08:01:33;;;;;;;6.43;5.82;;;15.30;88.90;;;;;;6369465;22;20435;-79
2022/04/25 08:04:00;;;;;;;5.03;4.63;;;15.40;88.40;;;;;;6369526;22;19999;-79
2022/04/25 08:06:26;;;;;;;8.63;6.70;;;15.50;88.30;;;;;;6369485;22;20507;-78
2022/04/25 08:08:53;;;;;;;6.13;5.40;;;15.60;87.00;;;;;;6367654;22;20006;-77
2022/04/25 08:11:21;;;;;;;8.73;7.82;;;15.60;87.30;;;;;;6369705;22;20420;-78
2022/04/25 08:19:17;;;;;;;5.53;5.03;;;15.50;87.10;;;;;;6371320;22;20015;-79
2022/04/25 08:21:44;;;;;;;8.98;6.70;;;15.70;87.30;;;;;;6369856;22;20076;-79
2022/04/25 08:24:13;;;;;;;10.45;9.35;;;15.80;85.10;;;;;;6369576;22;20060;-78
2022/04/25 08:26:40;;;;;;;7.18;6.25;;;15.80;84.60;;;;;;6369809;22;20002;-78
2022/04/25 08:29:06;;;;;;;6.10;5.22;;;15.80;85.80;;;;;;6369289;22;19998;-78
2022/04/25 08:31:36;;;;;;;6.03;5.43;;;15.80;86.00;;;;;;6369218;22;20037;-78
2022/04/25 08:34:04;;;;;;;6.90;6.30;;;16.10;86.20;;;;;;6340692;22;20037;-78
2022/04/25 08:36:31;;;;;;;5.35;4.85;;;16.10;83.50;;;;;;6367612;22;20025;-78
2022/04/25 08:38:57;;;;;;;4.82;4.40;;;16.30;84.70;;;;;;6368436;22;20013;-79
2022/04/25 08:41:48;;;;;;;5.85;5.22;;;16.60;84.80;;;;;;6340172;22;20016;-79
2022/04/25 08:44:18;;;;;;;6.25;5.65;;;16.80;82.90;;;;;;6368411;22;20047;-79
2022/04/25 08:46:52;;;;;;;7.03;6.32;;;16.80;82.00;;;;;;6367556;22;19999;-78
2022/04/25 08:49:21;;;;;;;6.60;5.38;;;17.00;81.80;;;;;;6370136;22;20377;-77
2022/04/25 08:51:49;;;;;;;6.57;5.60;;;17.00;81.30;;;;;;6369986;22;19999;-77
2022/04/25 08:54:15;;;;;;;7.47;5.65;;;17.00;80.20;;;;;;6369154;22;20094;-77
2022/04/25 08:56:41;;;;;;;7.03;5.40;;;17.10;81.00;;;;;;6368963;22;20003;-79
2022/04/25 08:59:08;;;;;;;6.63;5.88;;;17.10;80.20;;;;;;6370036;22;19999;-79
2022/04/25 09:01:35;;;;;;;8.00;7.20;;;17.20;80.20;;;;;;6370353;22;20416;-79
2022/04/25 09:04:02;;;;;;;6.70;5.55;;;17.30;79.40;;;;;;6369081;22;19998;-79
2022/04/25 09:06:28;;;;;;;6.80;5.45;;;17.40;80.10;;;;;;6341377;22;20013;-79
2022/04/25 09:08:54;;;;;;;5.88;5.30;;;17.50;79.30;;;;;;6368284;22;20009;-79
2022/04/25 09:14:05;;;;;;;5.40;4.38;;;17.90;79.00;;;;;;6368422;22;20393;-80
2022/04/25 09:16:31;;;;;;;5.03;4.55;;;18.10;79.60;;;;;;6367559;22;20026;-80
2022/04/25 09:18:57;;;;;;;4.63;4.20;;;18.20;79.20;;;;;;6368577;22;20451;-83
2022/04/25 09:21:24;;;;;;;5.95;5.35;;;18.40;78.70;;;;;;6368822;22;20002;-84
2022/04/25 09:23:52;;;;;;;9.25;8.30;;;18.50;77.80;;;;;;6341039;22;20317;-83
2022/04/25 09:26:21;;;;;;;6.13;4.55;;;18.50;74.30;;;;;;6369407;22;20002;-83
2022/04/25 09:28:49;;;;;;;4.13;3.73;;;18.50;77.00;;;;;;6369466;22;20010;-79
2022/04/25 09:31:16;;;;;;;4.13;3.72;;;18.70;77.60;;;;;;6368697;22;20713;-80
2022/04/25 09:33:42;;;;;;;4.28;3.88;;;18.90;77.60;;;;;;6367182;22;20015;-75
2022/04/25 09:36:08;;;;;;;6.55;4.28;;;19.10;76.30;;;;;;6340794;22;20002;-75
2022/04/25 09:38:36;;;;;;;6.32;4.63;;;19.20;74.90;;;;;;6368171;22;20052;-75
2022/04/25 09:41:03;;;;;;;5.22;4.50;;;19.20;74.00;;;;;;6340229;22;20503;-75
2022/04/25 09:43:30;;;;;;;5.07;4.57;;;19.20;74.50;;;;;;6367333;22;19994;-77
2022/04/25 09:46:10;;;;;;;5.95;5.35;;;19.20;74.40;;;;;;6368343;22;19999;-77
2022/04/25 09:48:38;;;;;;;5.43;4.90;;;19.20;73.10;;;;;;6341880;22;20079;-77
2022/04/25 09:51:04;;;;;;;5.10;4.60;;;19.20;73.80;;;;;;6369124;22;19994;-77
2022/04/25 09:53:42;;;;;;;8.13;5.70;;;19.30;74.10;;;;;;6341036;22;20305;-77
2022/04/25 09:56:16;;;;;;;6.22;5.57;;;19.50;73.20;;;;;;6367981;22;19994;-76
2022/04/25 09:58:44;;;;;;;6.40;5.78;;;19.40;72.20;;;;;;6368990;22;20029;-76
2022/04/25 10:01:14;;;;;;;16.27;7.35;;;19.30;72.40;;;;;;6367911;22;20002;-76
2022/04/25 10:03:41;;;;;;;7.70;6.90;;;19.30;71.20;;;;;;6341349;22;20006;-75
2022/04/25 10:06:08;;;;;;;8.18;6.35;;;19.30;71.90;;;;;;6369048;22;20009;-77
2022/04/25 10:08:35;;;;;;;8.93;6.43;;;19.20;71.90;;;;;;6369803;22;20026;-77
2022/04/25 10:11:03;;;;;;;8.07;7.32;;;19.20;72.00;;;;;;6370058;22;20316;-77
2022/04/25 10:13:33;;;;;;;7.22;6.53;;;19.10;71.90;;;;;;6369677;22;20006;-77
2022/04/25 10:16:00;;;;;;;6.32;5.70;;;19.10;72.70;;;;;;6370370;22;20032;-77
2022/04/25 10:18:27;;;;;;;6.50;5.90;;;19.10;73.20;;;;;;6369903;22;19995;-77
2022/04/25 10:20:52;;;;;;;7.35;5.65;;;19.10;73.40;;;;;;6370114;22;20026;-77
2022/04/25 10:23:18;;;;;;;7.82;6.90;;;19.10;73.70;;;;;;6341864;22;19999;-76
2022/04/25 10:25:54;;;;;;;6.95;6.35;;;19.20;73.60;;;;;;6369688;22;20003;-78
2022/04/25 10:28:30;;;;;;;10.02;8.68;;;19.20;73.30;;;;;;6369351;22;20039;-77
2022/04/25 10:31:11;;;;;;;8.75;7.47;;;19.10;71.90;;;;;;6370008;22;19998;-77
2022/04/25 10:33:51;;;;;;;7.88;6.53;;;19.00;72.30;;;;;;6371525;22;20013;-77
2022/04/25 10:36:38;;;;;;;7.00;5.72;;;19.00;72.40;;;;;;6344083;22;20324;-77
2022/04/25 10:39:20;;;;;;;9.30;6.65;;;19.00;72.90;;;;;;6371598;22;20021;-77
2022/04/25 10:44:42;;;;;;;6.75;5.68;;;19.20;73.80;;;;;;6371226;22;20021;-76
2022/04/25 10:47:12;;;;;;;6.18;5.57;;;19.30;73.10;;;;;;6371430;22;20002;-77
2022/04/25 10:49:58;;;;;;;6.05;5.20;;;19.40;72.60;;;;;;6371342;22;20011;-76
2022/04/25 10:52:42;;;;;;;5.95;5.40;;;19.30;73.10;;;;;;6371305;22;20030;-77
2022/04/25 10:55:31;;;;;;;7.22;6.22;;;19.40;73.30;;;;;;6371445;22;19994;-77
2022/04/25 10:58:03;;;;;;;6.50;5.82;;;19.50;72.40;;;;;;6370815;22;20079;-77
2022/04/25 11:00:37;;;;;;;6.10;5.50;;;19.60;72.80;;;;;;6342727;22;20008;-77
2022/04/25 11:03:24;;;;;;;6.28;5.68;;;19.70;72.80;;;;;;6371347;22;20081;-77
2022/04/25 11:05:52;;;;;;;6.18;5.57;;;19.90;73.20;;;;;;6371771;22;20002;-77
2022/04/25 11:08:18;;;;;;;6.28;5.03;;;20.10;71.90;;;;;;6371823;22;20029;-77
2022/04/25 11:10:47;;;;;;;5.53;4.85;;;20.30;72.00;;;;;;6343216;22;19998;-77
2022/04/25 11:13:15;;;;;;;5.97;5.37;;;20.40;70.60;;;;;;6371198;22;19999;-77
2022/04/25 11:15:43;;;;;;;7.13;5.40;;;20.50;70.00;;;;;;6371651;22;20018;-77
2022/04/25 11:18:27;;;;;;;7.85;5.82;;;20.50;69.30;;;;;;6371193;22;19999;-77
2022/04/25 11:20:58;;;;;;;6.55;5.28;;;20.70;69.70;;;;;;6371507;22;20426;-77
2022/04/25 11:23:27;;;;;;;5.85;5.25;;;20.90;68.80;;;;;;6371266;22;20316;-77
2022/04/25 11:25:55;;;;;;;6.55;4.70;;;21.10;68.30;;;;;;6371729;22;19999;-77
2022/04/25 11:28:21;;;;;;;7.15;5.15;;;21.10;68.00;;;;;;6371034;22;19998;-77
2022/04/25 11:31:13;;;;;;;5.57;4.93;;;21.10;68.00;;;;;;6370960;22;20051;-78
2022/04/25 11:33:46;;;;;;;4.47;4.03;;;21.20;67.50;;;;;;6370599;22;20010;-78
2022/04/25 11:36:13;;;;;;;7.65;5.68;;;21.20;67.30;;;;;;6370807;22;19994;-77
2022/04/25 11:41:25;;;;;;;5.82;5.00;;;21.10;68.00;;;;;;6370772;22;20044;-77
2022/04/25 11:43:51;;;;;;;5.72;4.32;;;21.20;68.10;;;;;;6369190;22;19995;-77
2022/04/25 11:46:17;;;;;;;6.78;6.07;;;21.30;68.00;;;;;;6369018;22;20007;-77
2022/04/25 11:48:51;;;;;;;5.50;4.88;;;21.20;67.30;;;;;;6369632;22;20002;-77
2022/04/25 11:51:23;;;;;;;8.52;6.20;;;21.10;67.70;;;;;;6370971;22;19994;-77
2022/04/25 11:53:57;;;;;;;7.05;5.85;;;21.00;67.70;;;;;;6369783;22;20025;-77
2022/04/25 11:56:23;;;;;;;6.40;5.18;;;20.70;67.80;;;;;;6369997;22;19994;-78
2022/04/25 11:58:50;;;;;;;6.78;5.90;;;20.50;68.20;;;;;;6368564;22;20304;-78
2022/04/25 12:01:38;;;;;;;6.03;5.13;;;20.40;68.40;;;;;;6370348;22;20017;-78
2022/04/25 12:04:23;;;;;;;5.72;5.13;;;20.30;69.00;;;;;;6341850;22;20020;-77
2022/04/25 12:06:53;;;;;;;7.10;4.50;;;20.20;68.60;;;;;;6342127;22;20039;-81
2022/04/25 12:15:36;;;;;;;5.97;4.05;;;19.90;69.30;;;;;;6370716;22;20066;-81
2022/04/25 12:18:16;;;;;;;4.00;3.53;;;19.70;70.00;;;;;;6370604;22;19994;-80
2022/04/25 12:20:44;;;;;;;5.23;3.50;;;19.60;70.10;;;;;;6370403;22;20009;-80
2022/04/25 12:23:18;;;;;;;5.10;3.40;;;19.60;70.30;;;;;;6370458;22;20665;-80
2022/04/25 12:25:44;;;;;;;4.60;3.33;;;19.50;70.30;;;;;;6368660;22;20088;-80
2022/04/25 12:28:13;;;;;;;3.15;2.83;;;19.50;70.70;;;;;;6367964;22;20073;-81
2022/04/25 12:30:44;;;;;;;5.63;3.55;;;19.40;71.00;;;;;;6369873;22;20002;-80
2022/04/25 12:33:12;;;;;;;3.28;2.97;;;19.30;71.70;;;;;;6367608;22;20432;-80
2022/04/25 12:35:38;;;;;;;4.45;3.30;;;19.30;71.60;;;;;;6369019;22;20002;-81
2022/04/25 12:38:05;;;;;;;4.85;2.90;;;19.20;71.30;;;;;;6367703;22;19991;-81
2022/04/25 12:40:31;;;;;;;4.72;3.10;;;19.20;71.70;;;;;;6368969;22;20406;-81
2022/04/25 12:42:57;;;;;;;4.88;3.05;;;19.10;71.70;;;;;;6370241;22;20002;-80
2022/04/25 12:45:23;;;;;;;5.07;3.40;;;19.20;72.10;;;;;;6316424;22;20033;-81
2022/04/25 12:47:58;;;;;;;3.72;2.75;;;19.10;72.20;;;;;;6369717;22;20051;-80
2022/04/25 12:50:44;;;;;;;3.53;3.15;;;19.10;71.90;;;;;;6342524;22;20414;-80
2022/04/25 12:53:11;;;;;;;3.88;2.80;;;19.20;71.80;;;;;;6369644;22;20007;-80
2022/04/25 12:55:47;;;;;;;5.32;3.17;;;19.20;72.20;;;;;;6368275;22;19994;-79
2022/04/25 12:58:14;;;;;;;3.90;2.47;;;19.20;72.80;;;;;;6369007;22;19998;-79
2022/04/25 13:00:45;;;;;;;3.33;2.40;;;19.10;72.60;;;;;;6368993;22;20022;-79
2022/04/25 13:03:12;;;;;;;4.30;2.67;;;19.20;72.60;;;;;;6339192;22;20003;-79
2022/04/25 13:05:38;;;;;;;2.20;2.00;;;19.10;72.80;;;;;;6368065;22;20116;-79
2022/04/25 13:08:04;;;;;;;4.32;2.65;;;19.20;73.00;;;;;;6368213;22;20033;-79
2022/04/25 13:10:30;;;;;;;3.28;2.20;;;19.30;73.20;;;;;;6367552;22;20024;-79
2022/04/25 13:12:58;;;;;;;3.75;1.90;;;19.40;73.20;;;;;;6367082;22;19998;-79
2022/04/25 13:15:30;;;;;;;3.72;2.35;;;19.30;73.80;;;;;;6339841;22;20081;-78
2022/04/25 13:17:58;;;;;;;4.88;3.70;;;19.40;73.70;;;;;;6367438;22;19998;-79
2022/04/25 13:20:28;;;;;;;4.50;2.53;;;19.50;73.30;;;;;;6366028;22;20006;-79
2022/04/25 13:22:53;;;;;;;5.15;2.90;;;19.70;73.50;;;;;;6368011;22;20002;-79
2022/04/25 13:25:23;;;;;;;3.17;1.67;;;19.80;72.10;;;;;;6367406;22;20029;-79
2022/04/25 13:27:50;;;;;;;6.70;3.10;;;20.00;72.80;;;;;;6367157;22;20006;-79